Time;durP1;ratioP1;P1;durP2;ratioP2;P2;SDS_P1;SDS_P2;PMS_P1;PMS_P2;Temp;Humidity;BMP_temperature;BMP_pressure;BME280_temperature;BME280_humidity;BME280_pressure;Samples;Min_cycle;Max_cycle;Signal;HPM_P1;HPM_P2
2021/04/01 00:00:17;;;;;;;33.10;13.60;;;;;;;8.33;70.30;99119.48;2189358;80;20139;-74
2021/04/01 00:03:21;;;;;;;36.53;15.72;;;;;;;8.29;70.32;99117.97;2198934;80;22524;-74
2021/04/01 00:06:23;;;;;;;42.50;18.60;;;;;;;8.22;70.36;99110.86;2197867;79;21300;-73
2021/04/01 00:09:25;;;;;;;38.05;17.42;;;;;;;8.15;70.37;99106.38;2184223;80;21786;-74
2021/04/01 00:12:27;;;;;;;35.88;15.38;;;;;;;8.14;70.35;99102.05;2198980;80;21353;-74
2021/04/01 00:15:29;;;;;;;33.92;14.98;;;;;;;8.14;70.53;99101.22;2205832;80;21731;-74
2021/04/01 00:18:31;;;;;;;36.65;16.02;;;;;;;8.10;70.48;99091.83;2190210;80;21776;-74
2021/04/01 00:21:33;;;;;;;34.33;16.17;;;;;;;8.06;70.82;99090.27;2195090;79;21296;-74
2021/04/01 00:24:35;;;;;;;34.85;15.78;;;;;;;8.06;70.82;99085.91;2205886;80;21276;-73
2021/04/01 00:27:37;;;;;;;34.80;17.05;;;;;;;8.06;70.98;99081.13;2202052;79;21157;-73
2021/04/01 00:30:39;;;;;;;33.63;15.63;;;;;;;8.04;70.97;99082.50;2204682;80;21586;-73
2021/04/01 00:33:42;;;;;;;35.28;14.83;;;;;;;8.01;71.08;99080.52;2189714;80;21161;-73
2021/04/01 00:36:44;;;;;;;34.60;15.75;;;;;;;7.97;70.95;99083.70;2182370;80;21161;-73
2021/04/01 00:39:46;;;;;;;36.28;16.75;;;;;;;7.99;70.97;99079.28;2189541;80;21292;-74
2021/04/01 00:42:48;;;;;;;33.88;15.05;;;;;;;7.89;70.58;99074.09;2195871;80;21296;-73
2021/04/01 00:45:50;;;;;;;37.25;17.37;;;;;;;7.75;70.82;99071.63;2204334;79;21304;-74
2021/04/01 00:48:52;;;;;;;37.58;17.73;;;;;;;7.66;71.16;99069.45;2176659;80;21287;-74
2021/04/01 00:51:54;;;;;;;38.30;17.42;;;;;;;7.55;71.12;99069.92;2171705;80;21591;-74
2021/04/01 00:54:56;;;;;;;36.42;16.25;;;;;;;7.49;71.20;99068.06;2202305;80;21728;-73
2021/04/01 00:57:58;;;;;;;32.93;14.30;;;;;;;7.43;70.97;99062.19;2203859;80;21315;-73
2021/04/01 01:01:13;;;;;;;36.58;16.05;;;;;;;7.35;71.10;99059.53;2205352;80;21308;-73
2021/04/01 01:04:09;;;;;;;33.00;14.53;;;;;;;7.32;71.29;99060.97;2194075;80;21269;-73
2021/04/01 01:07:12;;;;;;;32.35;14.47;;;;;;;7.29;71.25;99051.04;2185163;80;21269;-73
2021/04/01 01:10:14;;;;;;;42.25;19.02;;;;;;;7.23;71.36;99042.19;2200490;80;21747;-72
2021/04/01 01:13:16;;;;;;;38.45;16.67;;;;;;;7.23;71.44;99040.88;2197074;79;21173;-73
2021/04/01 01:16:18;;;;;;;56.63;26.55;;;;;;;7.14;71.65;99040.43;2188164;80;21371;-72
2021/04/01 01:19:20;;;;;;;39.35;18.32;;;;;;;7.16;71.73;99035.55;2200601;80;21296;-72
2021/04/01 01:22:22;;;;;;;43.70;21.02;;;;;;;7.10;71.63;99027.53;2204334;79;21315;-72
2021/04/01 01:25:24;;;;;;;37.53;17.17;;;;;;;7.09;71.87;99032.81;2182547;80;21751;-73
2021/04/01 01:28:26;;;;;;;35.38;16.37;;;;;;;7.08;71.60;99024.59;2210712;80;21318;-74
2021/04/01 01:31:28;;;;;;;38.67;16.52;;;;;;;7.05;71.54;99019.51;2199890;80;21744;-73
2021/04/01 01:34:30;;;;;;;42.30;18.62;;;;;;;7.02;71.59;99021.79;2196123;80;21284;-74
2021/04/01 01:37:32;;;;;;;42.38;18.85;;;;;;;7.00;71.94;99017.58;2208345;80;21276;-73
2021/04/01 01:40:34;;;;;;;42.00;19.27;;;;;;;7.01;71.83;99014.03;2192589;80;21699;-74
2021/04/01 01:43:37;;;;;;;40.60;18.35;;;;;;;6.96;71.82;99014.70;2206590;80;21130;-72
2021/04/01 01:46:39;;;;;;;41.53;19.05;;;;;;;6.91;71.69;99008.36;2197814;80;21304;-73
2021/04/01 01:49:41;;;;;;;42.25;20.05;;;;;;;6.87;71.73;99004.22;2198417;80;21731;-73
2021/04/01 01:52:43;;;;;;;42.55;19.67;;;;;;;6.88;71.88;99004.15;2193504;80;21287;-72
2021/04/01 01:55:45;;;;;;;48.95;24.05;;;;;;;6.89;71.95;99001.91;2194145;80;21732;-72
2021/04/01 01:58:47;;;;;;;47.30;24.60;;;;;;;6.93;72.39;99001.34;2209153;80;21300;-72
2021/04/01 02:01:49;;;;;;;54.88;30.00;;;;;;;6.92;72.65;98990.07;2210394;80;21727;-74
2021/04/01 02:04:51;;;;;;;39.23;19.07;;;;;;;6.89;72.01;98984.95;2195580;80;21288;-73
2021/04/01 02:07:53;;;;;;;39.10;18.67;;;;;;;6.84;72.07;98975.20;2209052;80;21164;-73
2021/04/01 02:10:55;;;;;;;37.13;17.52;;;;;;;6.84;71.98;98981.72;2203994;80;21385;-73
2021/04/01 02:13:57;;;;;;;38.20;17.92;;;;;;;6.82;72.03;98978.31;2198890;80;21122;-72
2021/04/01 02:16:59;;;;;;;42.33;17.77;;;;;;;6.81;71.86;98980.55;2207297;79;21212;-72
2021/04/01 02:20:01;;;;;;;34.75;16.97;;;;;;;6.75;71.80;98976.89;2201425;80;21292;-72
2021/04/01 02:23:03;;;;;;;36.77;18.32;;;;;;;6.77;71.76;98972.47;2198312;79;21317;-73
2021/04/01 02:26:05;;;;;;;40.55;18.60;;;;;;;6.68;71.85;98968.50;2181344;81;21311;-72
2021/04/01 02:29:07;;;;;;;41.50;19.77;;;;;;;6.63;71.86;98969.14;2185831;80;21375;-72
2021/04/01 02:32:09;;;;;;;39.80;19.15;;;;;;;6.58;72.13;98962.00;2198492;79;21308;-72
2021/04/01 02:35:11;;;;;;;42.50;20.32;;;;;;;6.54;72.18;98960.42;2190237;80;21130;-72
2021/04/01 02:38:13;;;;;;;41.77;19.95;;;;;;;6.50;72.48;98951.03;2196597;80;21317;-73
2021/04/01 02:41:15;;;;;;;40.20;20.40;;;;;;;6.47;72.69;98955.08;2207159;80;21275;-72
2021/04/01 02:44:17;;;;;;;43.17;21.23;;;;;;;6.43;72.80;98949.60;2196236;80;21280;-73
2021/04/01 02:47:19;;;;;;;42.60;21.93;;;;;;;6.39;72.48;98945.83;2211577;80;21271;-72
2021/04/01 02:50:21;;;;;;;43.02;19.67;;;;;;;6.35;72.66;98944.69;2194546;80;21291;-73
2021/04/01 02:53:23;;;;;;;39.92;19.20;;;;;;;6.35;72.25;98941.66;2190161;80;21182;-73
2021/04/01 02:56:25;;;;;;;41.15;18.37;;;;;;;6.28;72.33;98931.53;2185816;80;21158;-73
2021/04/01 02:59:27;;;;;;;42.53;22.82;;;;;;;6.19;72.29;98930.16;2204695;79;21752;-73
2021/04/01 03:02:29;;;;;;;39.30;18.92;;;;;;;6.15;72.87;98931.19;2160592;80;21720;-73
2021/04/01 03:05:31;;;;;;;49.25;23.52;;;;;;;6.28;73.19;98928.93;2170307;80;21743;-72
2021/04/01 03:08:33;;;;;;;47.30;20.88;;;;;;;6.29;72.46;98924.95;2196504;79;21379;-74
2021/04/01 03:11:35;;;;;;;54.73;25.05;;;;;;;6.18;72.46;98924.11;2198354;80;21320;-73
2021/04/01 03:14:37;;;;;;;74.85;32.80;;;;;;;6.13;72.44;98923.45;2181745;81;21287;-73
2021/04/01 03:17:40;;;;;;;49.53;25.15;;;;;;;6.09;72.52;98922.34;2190086;80;21685;-73
2021/04/01 03:20:42;;;;;;;52.88;24.02;;;;;;;6.05;72.80;98925.54;2201466;80;21737;-73
2021/04/01 03:23:44;;;;;;;55.48;24.55;;;;;;;6.05;73.28;98921.63;2198869;79;21593;-74
2021/04/01 03:26:46;;;;;;;52.93;24.15;;;;;;;6.06;72.74;98918.09;2160959;80;21904;-74
2021/04/01 03:30:03;;;;;;;43.75;22.52;;;;;;;6.04;72.46;98922.06;2197041;79;21364;-73
2021/04/01 03:33:05;;;;;;;48.92;23.00;;;;;;;5.98;72.57;98920.19;2203029;80;21308;-74
2021/04/01 03:36:07;;;;;;;43.40;21.00;;;;;;;5.89;72.53;98915.70;2208666;80;21307;-73
2021/04/01 03:39:09;;;;;;;42.33;21.70;;;;;;;5.86;72.74;98914.97;2195226;80;21319;-73
2021/04/01 03:42:11;;;;;;;47.55;21.85;;;;;;;5.84;72.74;98912.43;2198591;79;21213;-73
2021/04/01 03:45:15;;;;;;;46.28;23.18;;;;;;;5.70;72.55;98903.89;2195196;80;21363;-73
2021/04/01 03:48:17;;;;;;;50.85;24.25;;;;;;;5.70;72.55;98903.89;2192012;80;21307;-73
2021/04/01 03:51:19;;;;;;;46.68;23.05;;;;;;;5.89;73.71;98907.89;2199343;80;21338;-73
2021/04/01 03:54:21;;;;;;;44.45;21.90;;;;;;;5.85;72.89;98911.53;2186774;80;21304;-73
2021/04/01 03:57:23;;;;;;;46.88;22.35;;;;;;;5.69;73.26;98909.16;2195357;80;21300;-72
2021/04/01 04:00:27;;;;;;;49.27;23.80;;;;;;;5.53;73.02;98907.16;2196970;80;23042;-74
2021/04/01 04:03:40;;;;;;;60.40;30.20;;;;;;;5.44;73.04;98908.80;2186761;80;21166;-74
2021/04/01 04:07:00;;;;;;;65.83;34.27;;;;;;;5.42;73.23;98904.12;2195131;80;21299;-74
2021/04/01 04:13:21;;;;;;;59.98;27.05;;;;;;;5.47;73.30;98909.14;2182072;80;21222;-74
2021/04/01 04:16:21;;;;;;;55.52;25.45;;;;;;;5.47;73.20;98901.33;2206295;79;21161;-74
2021/04/01 04:19:23;;;;;;;54.77;24.43;;;;;;;5.42;72.92;98897.61;2191583;79;21307;-75
2021/04/01 04:22:25;;;;;;;46.65;22.55;;;;;;;5.35;72.93;98893.09;2189047;80;21280;-74
2021/04/01 04:25:28;;;;;;;49.60;22.75;;;;;;;5.32;73.12;98900.19;2197761;80;21294;-74
2021/04/01 04:28:33;;;;;;;45.08;24.12;;;;;;;5.30;73.05;98897.64;2193571;79;21303;-75
2021/04/01 04:31:36;;;;;;;46.68;22.73;;;;;;;5.31;73.20;98895.87;2187348;80;21747;-72
2021/04/01 04:34:38;;;;;;;43.83;21.77;;;;;;;5.32;73.28;98894.98;2197482;80;21756;-74
2021/04/01 04:37:40;;;;;;;44.10;22.13;;;;;;;5.35;72.93;98889.19;2190532;80;21327;-74
2021/04/01 04:40:42;;;;;;;43.58;22.70;;;;;;;5.35;73.25;98885.28;2203747;80;21728;-75
2021/04/01 04:43:44;;;;;;;49.13;22.58;;;;;;;5.40;72.99;98886.87;2202346;80;21269;-74
2021/04/01 04:46:46;;;;;;;46.23;22.10;;;;;;;5.44;72.95;98880.64;2202457;80;21311;-74
2021/04/01 04:49:48;;;;;;;42.90;20.75;;;;;;;5.51;72.98;98886.00;2185068;80;21308;-73
2021/04/01 04:52:50;;;;;;;47.53;22.55;;;;;;;5.58;72.87;98878.81;2190019;79;21752;-74
2021/04/01 04:56:01;;;;;;;49.63;24.72;;;;;;;5.62;72.88;98879.92;2182936;80;21744;-74
2021/04/01 04:59:06;;;;;;;49.77;24.43;;;;;;;5.65;72.75;98881.09;2207784;80;21284;-74
2021/04/01 05:05:26;;;;;;;65.92;29.15;;;;;;;5.87;72.90;98873.72;2203914;80;21320;-73
2021/04/01 05:08:28;;;;;;;50.73;24.52;;;;;;;6.07;72.75;98869.85;2193544;80;21287;-74
2021/04/01 05:11:32;;;;;;;48.25;23.73;;;;;;;6.17;72.49;98870.32;2185205;80;21606;-73
2021/04/01 05:14:34;;;;;;;58.45;28.40;;;;;;;6.31;72.51;98864.53;2204586;79;21314;-73
2021/04/01 05:17:37;;;;;;;52.20;26.23;;;;;;;6.40;72.34;98867.20;2199218;80;21587;-73
2021/04/01 05:20:39;;;;;;;52.67;26.40;;;;;;;6.49;72.31;98858.13;2201591;80;21311;-74
2021/04/01 05:23:44;;;;;;;63.68;29.63;;;;;;;6.64;72.47;98863.11;2212500;79;21772;-72
2021/04/01 05:30:10;;;;;;;56.77;28.98;;;;;;;7.19;72.18;98852.80;2195782;80;21312;-72
2021/04/01 05:33:14;;;;;;;55.90;29.35;;;;;;;7.55;72.13;98852.44;2203722;79;21332;-74
2021/04/01 05:39:45;;;;;;;60.55;30.10;;;;;;;8.02;71.90;98841.42;2181389;79;21777;-72
2021/04/01 05:42:48;;;;;;;62.95;30.00;;;;;;;8.29;71.73;98833.95;2197595;79;21594;-71
2021/04/01 05:45:52;;;;;;;51.92;27.13;;;;;;;8.49;71.59;98827.72;2197603;80;21170;-71
2021/04/01 05:49:02;;;;;;;51.95;28.65;;;;;;;8.73;71.51;98829.94;2188772;80;21759;-71
2021/04/01 05:56:12;;;;;;;69.82;31.87;;;;;;;9.24;71.47;98822.41;2189987;79;21178;-71
2021/04/01 05:59:11;;;;;;;70.90;32.45;;;;;;;9.65;71.01;98825.80;2196588;80;21732;-71
2021/04/01 06:02:31;;;;;;;73.57;34.20;;;;;;;9.90;70.80;98825.23;2199645;79;22383;-70
2021/04/01 06:05:32;;;;;;;52.08;27.45;;;;;;;10.26;70.54;98830.55;2193767;79;21256;-70
2021/04/01 06:08:35;;;;;;;48.95;25.68;;;;;;;10.57;70.00;98825.66;2181449;80;21312;-71
2021/04/01 06:11:38;;;;;;;55.92;28.17;;;;;;;10.92;70.30;98832.28;2128736;80;21351;-71
2021/04/01 06:14:40;;;;;;;55.30;27.25;;;;;;;11.25;69.45;98827.16;2138300;80;21296;-71
2021/04/01 06:17:42;;;;;;;50.43;27.62;;;;;;;11.58;69.67;98820.20;2185098;80;21348;-71
2021/04/01 06:20:44;;;;;;;47.85;25.72;;;;;;;11.88;69.67;98827.02;2179715;80;21157;-68
2021/04/01 06:23:46;;;;;;;55.45;26.87;;;;;;;12.15;69.27;98820.86;2206166;78;21715;-70
2021/04/01 06:26:48;;;;;;;55.88;27.90;;;;;;;12.21;68.86;98819.61;2195474;80;21326;-68
2021/04/01 06:33:13;;;;;;;75.05;39.00;;;;;;;12.64;68.87;98812.70;2186404;80;21323;-71
2021/04/01 06:36:16;;;;;;;70.08;37.42;;;;;;;13.09;68.13;98815.69;2194596;80;21315;-69
2021/04/01 06:39:18;;;;;;;66.75;33.73;;;;;;;13.41;67.11;98817.81;2188827;80;21874;-67
2021/04/01 06:42:20;;;;;;;60.40;32.95;;;;;;;13.71;67.43;98808.61;2198835;80;21291;-69
2021/04/01 06:45:22;;;;;;;;;;;;;;;14.09;67.71;98808.00;2193784;79;21304;-71
2021/04/01 06:48:26;;;;;;;65.60;34.75;;;;;;;14.56;66.75;98807.47;2184144;80;20263;-70
2021/04/01 06:51:30;;;;;;;56.68;28.30;;;;;;;14.94;66.15;98804.13;2186616;79;21292;-68
2021/04/01 06:54:38;;;;;;;52.33;26.10;;;;;;;14.83;62.38;98801.86;2190855;80;21157;-69
2021/04/01 06:57:51;;;;;;;53.20;26.10;;;;;;;14.64;61.79;98795.88;2204117;80;21316;-72
2021/04/01 07:00:57;;;;;;;51.92;27.35;;;;;;;14.68;62.52;98788.54;2174611;80;21181;-71
2021/04/01 07:03:57;;;;;;;58.63;29.52;;;;;;;14.88;62.51;98791.78;2180378;80;21272;-72
2021/04/01 07:06:59;;;;;;;54.10;26.90;;;;;;;15.12;62.67;98776.73;2196349;81;21347;-71
2021/04/01 07:10:13;;;;;;;49.88;26.60;;;;;;;15.32;61.45;98782.56;2180270;80;21303;-70
2021/04/01 07:13:14;;;;;;;54.10;26.70;;;;;;;15.37;59.50;98788.31;2173821;80;21284;-72
2021/04/01 07:16:25;;;;;;;50.35;25.97;;;;;;;15.22;58.97;98782.45;2203533;80;21597;-69
2021/04/01 07:23:14;;;;;;;51.92;26.95;;;;;;;15.47;59.14;98776.98;2182842;80;21281;-70
2021/04/01 07:46:28;;;;;;;48.30;23.55;;;;;;;16.52;53.70;98746.57;2198359;79;21744;-71
2021/04/01 07:49:29;;;;;;;46.23;22.42;;;;;;;16.58;50.91;98746.53;2199925;80;21260;-72
2021/04/01 07:52:32;;;;;;;46.55;22.52;;;;;;;16.77;51.24;98741.77;2186888;80;21799;-72
2021/04/01 07:55:39;;;;;;;47.73;22.73;;;;;;;17.01;52.46;98734.83;2178231;80;21292;-70
2021/04/01 07:58:55;;;;;;;44.90;20.80;;;;;;;17.42;49.72;98736.86;2200917;78;21283;-73
2021/04/01 08:02:04;;;;;;;43.42;21.12;;;;;;;17.48;47.87;98740.30;2198567;80;21169;-72
2021/04/01 08:05:04;;;;;;;45.03;22.13;;;;;;;17.72;47.74;98730.23;2179094;80;21379;-71
2021/04/01 08:08:08;;;;;;;47.03;22.60;;;;;;;17.82;47.82;98723.92;2196672;80;21299;-70
2021/04/01 08:11:11;;;;;;;45.08;21.62;;;;;;;17.92;47.95;98728.42;2206519;80;21316;-70
2021/04/01 08:14:15;;;;;;;43.15;21.35;;;;;;;17.66;46.99;98725.83;2180268;80;21292;-72
2021/04/01 08:17:19;;;;;;;46.98;21.82;;;;;;;17.39;47.35;98721.23;2171106;80;21703;-72
2021/04/01 08:20:22;;;;;;;44.85;21.75;;;;;;;17.69;47.73;98710.12;2204802;80;21260;-72
2021/04/01 08:23:29;;;;;;;43.68;21.27;;;;;;;17.69;47.73;98710.12;2202546;80;21283;-72
2021/04/01 08:26:40;;;;;;;43.70;21.30;;;;;;;18.12;47.33;98722.57;2191457;80;21298;-72
2021/04/01 08:33:26;;;;;;;46.95;22.20;;;;;;;18.77;47.52;98697.82;2186190;80;21771;-72
2021/04/01 08:36:28;;;;;;;42.90;22.00;;;;;;;19.40;46.35;98708.94;2192793;80;21316;-72
2021/04/01 08:39:30;;;;;;;;;;;;;;;19.77;45.40;98699.07;2193897;79;21292;-72
2021/04/01 08:42:32;;;;;;;45.78;20.45;;;;;;;20.07;44.38;98707.97;2196526;79;20266;-71
2021/04/01 08:45:34;;;;;;;42.30;20.57;;;;;;;20.00;42.34;98709.59;2196167;80;22256;-69
2021/04/01 08:48:35;;;;;;;42.17;19.62;;;;;;;19.98;42.98;98700.91;2195221;80;21720;-70
2021/04/01 08:51:37;;;;;;;;;;;;;;;20.01;44.31;98697.95;2200041;80;21321;-73
2021/04/01 08:54:40;;;;;;;39.40;18.95;;;;;;;20.08;44.72;98696.81;2191252;80;20175;-72
2021/04/01 08:57:42;;;;;;;45.25;18.60;;;;;;;20.10;42.97;98699.31;2186804;79;21306;-72
2021/04/01 09:00:44;;;;;;;;;;;;;;;20.14;41.87;98690.02;2187100;80;21301;-72
2021/04/01 09:03:46;;;;;;;37.98;16.93;;;;;;;20.19;40.12;98689.89;2191559;80;20247;-69
2021/04/01 09:06:48;;;;;;;37.88;15.43;;;;;;;19.96;40.17;98688.27;2178745;80;21291;-71
2021/04/01 09:09:51;;;;;;;40.60;16.45;;;;;;;19.88;41.50;98689.06;2179025;80;21711;-69
2021/04/01 09:12:56;;;;;;;37.75;16.25;;;;;;;19.96;39.21;98690.92;2176617;80;21269;-71
2021/04/01 09:16:02;;;;;;;38.53;15.72;;;;;;;20.23;37.83;98691.75;2181868;80;21755;-71
2021/04/01 09:19:04;;;;;;;35.50;15.15;;;;;;;20.53;37.74;98675.73;2174167;80;21448;-72
2021/04/01 09:22:07;;;;;;;34.60;15.00;;;;;;;20.67;35.27;98687.61;2178855;80;21857;-72
2021/04/01 09:25:09;;;;;;;;;;;;;;;20.77;35.27;98674.16;2187255;80;21293;-71
2021/04/01 09:28:12;;;;;;;37.90;15.48;;;;;;;20.64;36.92;98667.10;2193657;80;20392;-70
2021/04/01 09:31:15;;;;;;;36.77;15.43;;;;;;;20.65;36.54;98665.60;2181167;80;21296;-69
2021/04/01 09:34:17;;;;;;;36.10;14.63;;;;;;;20.62;38.27;98667.77;2190900;80;21296;-71
2021/04/01 09:37:20;;;;;;;34.18;14.28;;;;;;;20.62;35.06;98662.45;2184233;80;21294;-70
2021/04/01 09:40:22;;;;;;;36.15;13.90;;;;;;;20.73;35.03;98664.33;2192890;80;21304;-72
2021/04/01 09:43:25;;;;;;;35.13;15.32;;;;;;;20.71;36.49;98670.81;2179131;80;21320;-72
2021/04/01 09:46:28;;;;;;;33.08;15.43;;;;;;;20.77;35.08;98664.83;2191337;80;21378;-72
2021/04/01 09:49:31;;;;;;;35.13;15.30;;;;;;;20.86;35.89;98659.02;2185630;80;21299;-70
2021/04/01 09:52:33;;;;;;;36.03;15.13;;;;;;;20.83;34.26;98662.01;2182373;80;21392;-72
2021/04/01 09:55:37;;;;;;;32.23;14.73;;;;;;;20.66;33.82;98646.44;2193224;80;21295;-72
2021/04/01 09:58:41;;;;;;;33.70;14.78;;;;;;;20.96;35.94;98643.73;2184815;79;21154;-71
2021/04/01 10:01:45;;;;;;;36.88;16.00;;;;;;;21.07;34.57;98638.05;2184749;80;21280;-72
2021/04/01 10:04:47;;;;;;;40.55;16.65;;;;;;;20.92;33.21;98649.88;2177180;80;21312;-73
2021/04/01 10:07:52;;;;;;;36.17;14.78;;;;;;;21.01;34.89;98645.89;2181003;80;21275;-72
2021/04/01 10:10:55;;;;;;;35.30;15.13;;;;;;;21.24;32.86;98638.07;2183597;80;21308;-69
2021/04/01 10:13:57;;;;;;;34.35;15.43;;;;;;;21.11;34.88;98642.05;2195042;80;21297;-70
2021/04/01 10:16:59;;;;;;;33.25;15.85;;;;;;;21.27;33.59;98646.55;2180166;80;21158;-69
2021/04/01 10:20:01;;;;;;;;;;;;;;;21.56;33.23;98648.42;2189214;80;21722;-69
2021/04/01 10:23:03;;;;;;;33.90;15.40;;;;;;;21.57;31.42;98637.58;2177641;80;20164;-69
2021/04/01 10:26:08;;;;;;;34.65;16.10;;;;;;;21.33;32.72;98622.89;2196679;80;21157;-70
2021/04/01 10:29:11;;;;;;;34.33;16.32;;;;;;;21.30;33.56;98629.39;2192727;80;21306;-70
2021/04/01 10:32:14;;;;;;;35.58;15.78;;;;;;;21.36;34.17;98622.55;2192077;79;21286;-70
2021/04/01 10:35:16;;;;;;;35.28;16.10;;;;;;;21.32;33.55;98618.55;2187283;80;21738;-70
2021/04/01 10:38:18;;;;;;;;;;;;;;;21.03;32.83;98617.22;2188362;80;21275;-70
2021/04/01 10:41:20;;;;;;;33.90;14.35;;;;;;;21.13;34.00;98623.73;2198969;80;20510;-70
2021/04/01 10:44:22;;;;;;;;;;;;;;;21.13;32.67;98613.06;2186926;80;21263;-70
2021/04/01 10:47:24;;;;;;;27.30;10.43;;;;;;;21.17;32.03;98619.73;2193739;80;20411;-70
2021/04/01 10:50:27;;;;;;;27.87;11.20;;;;;;;21.28;30.88;98607.40;2174519;80;21283;-70
2021/04/01 10:53:30;;;;;;;30.20;12.20;;;;;;;21.20;31.73;98602.06;2175261;80;21323;-71
2021/04/01 10:56:32;;;;;;;26.73;9.30;;;;;;;21.22;30.68;98605.38;2193189;80;21288;-71
2021/04/01 10:59:34;;;;;;;;;;;;;;;21.05;27.26;98612.06;2184937;80;21395;-69
2021/04/01 11:02:36;;;;;;;25.27;9.33;;;;;;;20.97;28.43;98595.23;2193189;80;20238;-70
2021/04/01 11:05:39;;;;;;;27.60;9.78;;;;;;;20.94;29.07;98591.87;2199663;80;21288;-70
2021/04/01 11:08:41;;;;;;;;;;;;;;;20.97;29.68;98589.90;2190816;80;21446;-70
2021/04/01 11:12:02;;;;;;;28.00;11.25;;;;;;;20.98;29.89;98584.91;2191270;80;20434;-71
2021/04/01 11:14:55;;;;;;;27.60;11.30;;;;;;;20.99;28.91;98588.74;2181809;80;21331;-70
2021/04/01 11:17:58;;;;;;;28.75;11.33;;;;;;;20.95;30.55;98583.41;2178984;80;21732;-70
2021/04/01 11:21:00;;;;;;;;;;;;;;;20.91;31.11;98580.22;2182457;80;21287;-70
2021/04/01 11:24:04;;;;;;;29.32;11.38;;;;;;;20.91;30.94;98577.55;2172332;81;20407;-70
2021/04/01 11:27:07;;;;;;;28.55;11.18;;;;;;;20.88;30.99;98589.89;2187799;80;21285;-70
2021/04/01 11:30:08;;;;;;;;;;;;;;;20.78;30.18;98585.22;2191116;80;21692;-72
2021/04/01 11:33:10;;;;;;;30.23;10.38;;;;;;;20.70;29.52;98586.05;2186707;80;20255;-70
2021/04/01 11:36:14;;;;;;;;;;;;;;;20.66;29.14;98579.34;2191741;80;21724;-70
2021/04/01 11:39:24;;;;;;;26.42;10.43;;;;;;;20.72;30.43;98581.38;2165749;80;20415;-70
2021/04/01 11:42:27;;;;;;;25.75;9.45;;;;;;;20.64;29.31;98573.84;2189018;80;21160;-71
2021/04/01 11:45:29;;;;;;;23.95;8.88;;;;;;;20.56;29.21;98572.83;2186097;80;21281;-71
2021/04/01 11:48:32;;;;;;;25.43;9.55;;;;;;;20.51;30.55;98570.32;2182983;80;21295;-71
2021/04/01 11:51:34;;;;;;;;;;;;;;;20.51;30.08;98574.31;2188964;80;21295;-70
2021/04/01 11:54:36;;;;;;;26.35;9.93;;;;;;;20.52;31.21;98562.16;2181317;80;20498;-71
2021/04/01 11:57:38;;;;;;;;;;;;;;;20.56;31.55;98566.17;2188189;80;21153;-71
2021/04/01 12:00:40;;;;;;;26.48;9.63;;;;;;;20.60;30.75;98560.00;2194666;80;20159;-70
2021/04/01 12:03:52;;;;;;;;;;;;;;;20.65;31.41;98564.35;2181257;80;21292;-71
2021/04/01 12:06:53;;;;;;;25.05;9.25;;;;;;;20.68;31.04;98559.23;2184303;80;20222;-71
2021/04/01 12:09:55;;;;;;;26.65;10.20;;;;;;;20.63;32.00;98558.37;2193851;80;21763;-70
2021/04/01 12:12:57;;;;;;;;;;;;;;;20.59;31.28;98561.02;2186686;80;21822;-71
2021/04/01 12:16:00;;;;;;;27.05;9.65;;;;;;;20.39;31.08;98553.83;2176272;80;20539;-71
2021/04/01 12:19:02;;;;;;;29.02;10.30;;;;;;;20.25;31.26;98567.26;2180726;80;21731;-70
2021/04/01 12:22:04;;;;;;;27.15;10.30;;;;;;;20.10;30.53;98568.39;2177560;80;21609;-72
2021/04/01 12:25:06;;;;;;;;;;;;;;;19.95;29.92;98563.33;2199307;80;21300;-71
2021/04/01 12:28:08;;;;;;;31.70;10.30;;;;;;;19.94;30.48;98555.85;2175993;80;20222;-70
2021/04/01 12:31:12;;;;;;;27.77;11.50;;;;;;;19.95;32.35;98546.03;2172799;80;21810;-71
2021/04/01 12:34:14;;;;;;;30.23;10.98;;;;;;;20.02;32.29;98552.37;2177643;79;21145;-71
2021/04/01 12:37:16;;;;;;;;;;;;;;;20.11;31.58;98553.23;2186590;80;21300;-71
2021/04/01 12:40:18;;;;;;;30.40;12.00;;;;;;;20.17;31.93;98542.78;2176548;80;20132;-70
2021/04/01 12:43:20;;;;;;;31.27;11.40;;;;;;;20.18;30.84;98542.28;2194059;80;21304;-70
2021/04/01 12:46:22;;;;;;;29.27;11.10;;;;;;;20.20;31.46;98536.28;2191259;80;21313;-70
2021/04/01 12:49:24;;;;;;;;;;;;;;;20.23;31.32;98539.47;2189377;80;21855;-69
2021/04/01 12:52:28;;;;;;;31.55;11.57;;;;;;;20.20;32.16;98530.47;2195152;80;20506;-69
2021/04/01 12:55:39;;;;;;;30.82;12.40;;;;;;;20.25;32.73;98537.97;2196073;79;21753;-71
2021/04/01 12:58:43;;;;;;;29.63;12.37;;;;;;;20.22;32.04;98525.80;2179809;80;21732;-71
2021/04/01 13:01:47;;;;;;;29.27;11.88;;;;;;;20.23;33.16;98518.16;2195013;80;21297;-71
2021/04/01 13:04:54;;;;;;;27.07;11.30;;;;;;;20.29;34.05;98514.52;2201714;80;21312;-70
2021/04/01 13:08:10;;;;;;;28.98;11.83;;;;;;;20.34;32.97;98520.17;2182001;80;21828;-71
2021/04/01 13:11:09;;;;;;;30.82;12.15;;;;;;;20.28;32.74;98511.52;2194269;80;21680;-71
2021/04/01 13:14:11;;;;;;;30.75;12.35;;;;;;;20.07;31.67;98514.14;2201472;79;21185;-72
2021/04/01 13:17:13;;;;;;;28.80;11.95;;;;;;;19.95;31.32;98510.09;2156052;80;21153;-71
2021/04/01 13:20:15;;;;;;;32.17;11.83;;;;;;;19.90;31.61;98503.42;2209834;80;21189;-71
2021/04/01 13:23:42;;;;;;;28.57;10.88;;;;;;;19.93;33.26;98504.94;2197434;80;21150;-71
2021/04/01 13:26:38;;;;;;;27.00;10.55;;;;;;;19.84;31.05;98505.41;2177577;80;21106;-70
2021/04/01 13:29:40;;;;;;;;;;;;;;;19.85;31.38;98496.41;2191672;80;21211;-71
2021/04/01 13:32:45;;;;;;;26.95;9.15;;;;;;;19.92;32.36;98496.61;2197862;80;20260;-71
2021/04/01 13:35:51;;;;;;;24.40;9.68;;;;;;;19.96;29.97;98499.29;2202336;80;21260;-72
2021/04/01 13:38:51;;;;;;;26.77;9.88;;;;;;;20.11;32.19;98487.50;2181205;80;21799;-71
2021/04/01 13:42:05;;;;;;;26.77;10.78;;;;;;;20.35;30.90;98487.23;2175364;78;21286;-71
2021/04/01 13:45:07;;;;;;;28.80;11.25;;;;;;;20.55;30.61;98483.75;2209058;80;21284;-72
2021/04/01 13:48:14;;;;;;;30.68;12.07;;;;;;;20.59;31.01;98482.43;2204337;80;21316;-71
2021/04/01 13:51:14;;;;;;;29.63;11.70;;;;;;;20.46;31.22;98474.92;2211446;80;21285;-71
2021/04/01 13:54:25;;;;;;;29.27;11.48;;;;;;;20.33;32.45;98477.22;2194330;80;21192;-72
2021/04/01 13:57:43;;;;;;;29.20;10.82;;;;;;;20.14;30.96;98473.04;2194952;80;21277;-72
2021/04/01 14:01:05;;;;;;;26.95;10.80;;;;;;;19.99;31.64;98467.02;2204099;79;21726;-72
2021/04/01 14:04:08;;;;;;;30.37;11.03;;;;;;;19.92;32.01;98463.34;2195619;80;21140;-71
2021/04/01 14:10:27;;;;;;;27.37;11.33;;;;;;;19.79;30.89;98457.66;2210621;80;21296;-71
2021/04/01 14:13:29;;;;;;;29.72;11.08;;;;;;;19.76;32.79;98466.76;2207379;80;21709;-71
2021/04/01 14:16:31;;;;;;;29.85;10.68;;;;;;;19.75;32.03;98465.08;2206568;80;21293;-71
2021/04/01 14:19:33;;;;;;;;;;;;;;;19.74;33.51;98466.10;2196165;80;21328;-71
2021/04/01 14:22:36;;;;;;;28.50;11.65;;;;;;;19.66;32.95;98462.07;2189853;80;20334;-72
2021/04/01 14:25:41;;;;;;;29.57;11.48;;;;;;;19.56;32.10;98466.18;2210503;79;21194;-71
2021/04/01 14:28:42;;;;;;;29.25;11.90;;;;;;;19.50;33.33;98453.53;2211316;80;21273;-71
2021/04/01 14:31:44;;;;;;;;;;;;;;;19.51;32.60;98456.03;2211087;80;21178;-71
2021/04/01 14:34:46;;;;;;;30.75;12.68;;;;;;;19.54;33.19;98450.39;2206484;80;20159;-71
2021/04/01 14:37:49;;;;;;;;;;;;;;;19.66;32.78;98442.12;2179523;79;21721;-72
2021/04/01 14:40:52;;;;;;;30.75;13.55;;;;;;;19.74;33.74;98433.66;2197586;80;20165;-71
2021/04/01 14:44:03;;;;;;;32.75;14.10;;;;;;;19.72;33.08;98443.65;2205015;80;21745;-71
2021/04/01 14:47:01;;;;;;;34.90;13.93;;;;;;;19.69;32.39;98440.46;2207120;80;21355;-71
2021/04/01 14:50:05;;;;;;;33.85;14.20;;;;;;;19.62;33.34;98436.27;2182834;80;21314;-71
2021/04/01 14:53:10;;;;;;;31.55;12.82;;;;;;;19.52;31.87;98433.77;2193615;80;21309;-71
2021/04/01 14:56:12;;;;;;;30.82;12.90;;;;;;;19.50;32.81;98432.25;2210507;80;21314;-71
2021/04/01 14:59:15;;;;;;;;;;;;;;;19.54;33.34;98429.11;2210193;79;21308;-71
2021/04/01 15:02:18;;;;;;;32.65;13.45;;;;;;;19.45;31.89;98429.23;2211818;80;21211;-71
2021/04/01 15:05:20;;;;;;;30.85;12.10;;;;;;;19.35;32.69;98429.34;2207954;80;21342;-71
2021/04/01 15:08:22;;;;;;;31.02;12.63;;;;;;;19.33;32.14;98428.18;2203187;80;21285;-71